Time;durP1;ratioP1;P1;durP2;ratioP2;P2;SDS_P1;SDS_P2;PMS_P1;PMS_P2;Temp;Humidity;BMP_temperature;BMP_pressure;BME280_temperature;BME280_humidity;BME280_pressure;Samples;Min_cycle;Max_cycle;Signal;HPM_P1;HPM_P2
2023/10/24 00:00:34;;;;;;;6.65;0.45;;;;;;;14.98;60.00;99422.03;5329597;27;20039;-96
2023/10/24 00:03:00;;;;;;;0.37;0.37;;;;;;;15.16;60.00;99425.41;5332238;27;20061;-96
2023/10/24 00:05:28;;;;;;;0.47;0.47;;;;;;;15.09;60.00;99434.50;5305408;27;20029;-96
2023/10/24 00:07:58;;;;;;;2.90;1.58;;;;;;;15.07;60.00;99433.75;5310564;27;20049;-96
2023/10/24 00:10:27;;;;;;;0.00;0.00;;;;;;;14.94;59.99;99424.91;5315283;27;20035;-96
2023/10/24 00:17:23;;;;;;;1.30;0.93;;;;;;;14.97;60.00;99409.00;5296607;27;20107;-96
2023/10/24 00:22:49;;;;;;;0.20;0.20;;;;;;;15.01;59.99;99390.38;5121505;27;21264;-95
2023/10/24 00:25:15;;;;;;;0.03;0.03;;;;;;;14.93;60.00;99386.50;5248945;27;20038;-96
2023/10/24 00:37:09;;;;;;;0.15;0.10;;;;;;;14.99;60.00;99358.19;5302742;27;20123;-96
2023/10/24 00:46:42;;;;;;;0.35;0.35;;;;;;;15.01;60.00;99335.34;5264046;27;20034;-96
2023/10/24 00:49:17;;;;;;;0.52;0.52;;;;;;;14.95;60.00;99351.44;5269261;27;20125;-96
2023/10/24 00:51:50;;;;;;;0.00;0.00;;;;;;;15.10;60.01;99339.22;5271131;27;20078;-96
2023/10/24 00:54:57;;;;;;;1.08;1.08;;;;;;;15.05;60.00;99343.88;5270654;27;20101;-96
2023/10/24 00:57:42;;;;;;;0.60;0.50;;;;;;;15.13;60.01;99359.16;5273546;27;20030;-96
2023/10/24 01:00:40;;;;;;;0.22;0.20;;;;;;;15.18;60.01;99349.28;5272347;27;20389;-96
2023/10/24 01:06:58;;;;;;;4.25;2.45;;;;;;;15.14;60.00;99356.47;5271435;27;20072;-96
2023/10/24 01:09:32;;;;;;;0.80;0.80;;;;;;;15.13;60.00;99383.59;5250230;27;20033;-95
2023/10/24 01:17:29;;;;;;;1.35;0.82;;;;;;;15.22;60.01;99390.13;5307657;27;20382;-96
2023/10/24 01:19:55;;;;;;;0.47;0.47;;;;;;;15.22;60.01;99396.22;5277495;27;20041;-96
2023/10/24 01:22:20;;;;;;;0.47;0.47;;;;;;;15.14;60.00;99394.94;5273285;27;20172;-95
2023/10/24 01:24:46;;;;;;;0.25;0.25;;;;;;;15.17;60.02;99398.25;5268131;27;20065;-96
2023/10/24 01:27:15;;;;;;;1.45;1.15;;;;;;;15.25;60.02;99382.91;5312548;27;20902;-96
2023/10/24 01:30:10;;;;;;;2.65;1.17;;;;;;;15.28;60.01;99372.25;5295601;27;20058;-96
2023/10/24 01:32:39;;;;;;;0.32;0.32;;;;;;;15.27;60.02;99374.97;5317316;27;20037;-96
2023/10/24 01:35:08;;;;;;;0.10;0.10;;;;;;;15.28;60.01;99368.78;5313292;27;20678;-96
2023/10/24 01:37:35;;;;;;;2.90;1.33;;;;;;;15.23;60.01;99369.06;5290103;27;20053;-95
2023/10/24 01:40:05;;;;;;;0.15;0.15;;;;;;;15.08;60.00;99372.53;5290624;27;20653;-95
2023/10/24 01:42:37;;;;;;;1.50;0.95;;;;;;;15.06;60.00;99371.78;5290702;27;20025;-96
2023/10/24 01:45:05;;;;;;;0.25;0.25;;;;;;;14.89;60.00;99369.25;5312674;27;20776;-96
2023/10/24 01:47:31;;;;;;;0.10;0.10;;;;;;;14.78;59.98;99366.38;5305984;27;20052;-96
2023/10/24 01:49:57;;;;;;;0.10;0.10;;;;;;;15.18;60.01;99357.16;5269739;27;20053;-96
2023/10/24 01:52:23;;;;;;;0.08;0.08;;;;;;;14.83;59.99;99362.59;5263981;27;20375;-96
2023/10/24 01:54:49;;;;;;;0.30;0.30;;;;;;;14.85;59.98;99367.72;5289484;27;20079;-96
2023/10/24 01:57:15;;;;;;;0.10;0.10;;;;;;;14.77;59.99;99368.16;5272388;27;20061;-96
2023/10/24 01:59:40;;;;;;;0.17;0.17;;;;;;;14.59;59.97;99361.31;5289924;27;20049;-96
2023/10/24 02:02:06;;;;;;;0.13;0.13;;;;;;;14.65;59.98;99360.97;5270143;27;20088;-95
2023/10/24 02:04:31;;;;;;;0.43;0.43;;;;;;;14.67;59.99;99353.91;5269027;27;20124;-94
2023/10/24 02:06:57;;;;;;;2.80;1.00;;;;;;;14.55;59.97;99355.41;5287023;27;20071;-96
2023/10/24 02:09:22;;;;;;;0.03;0.03;;;;;;;14.49;59.98;99349.66;5269515;27;20378;-96
2023/10/24 02:11:48;;;;;;;0.93;0.93;;;;;;;14.48;59.97;99347.97;5269313;27;20111;-96
2023/10/24 02:14:13;;;;;;;0.62;0.62;;;;;;;14.57;59.98;99334.34;5269683;27;20067;-96
2023/10/24 02:16:39;;;;;;;0.40;0.40;;;;;;;14.52;59.97;99337.22;5278096;27;20065;-95
2023/10/24 02:19:04;;;;;;;0.85;0.43;;;;;;;14.43;59.97;99337.72;5269502;27;20068;-94
2023/10/24 02:21:30;;;;;;;0.52;0.52;;;;;;;14.34;59.97;99340.81;5271740;27;20310;-96
2023/10/24 02:23:55;;;;;;;0.90;0.90;;;;;;;14.52;59.97;99349.50;5272620;27;20100;-96
2023/10/24 02:26:21;;;;;;;0.55;0.55;;;;;;;14.25;59.96;99352.63;5271949;27;20093;-96
2023/10/24 02:28:46;;;;;;;0.47;0.47;;;;;;;14.06;59.95;99351.91;5273559;27;20075;-96
2023/10/24 02:31:14;;;;;;;0.13;0.13;;;;;;;13.99;59.94;99358.41;5277148;27;20089;-95
2023/10/24 02:33:44;;;;;;;2.92;1.70;;;;;;;14.08;59.95;99360.53;5298585;27;20086;-96
2023/10/24 02:36:43;;;;;;;0.37;0.23;;;;;;;13.89;59.94;99359.78;5335843;27;20434;-96
2023/10/24 02:39:16;;;;;;;0.25;0.25;;;;;;;13.81;59.94;99349.72;5317486;27;20064;-96
2023/10/24 02:45:30;;;;;;;0.10;0.10;;;;;;;13.81;59.94;99368.03;5110773;27;20058;-94
2023/10/24 02:47:55;;;;;;;0.10;0.10;;;;;;;13.82;59.94;99360.09;5272973;27;20074;-95
2023/10/24 02:50:21;;;;;;;0.32;0.32;;;;;;;13.75;59.94;99348.28;5278284;27;20065;-95
2023/10/24 02:52:46;;;;;;;1.52;1.25;;;;;;;13.75;59.94;99347.44;5278278;27;20120;-95
2023/10/24 02:55:12;;;;;;;0.28;0.28;;;;;;;13.80;59.94;99356.72;5278802;27;20079;-95
2023/10/24 02:57:37;;;;;;;3.20;0.60;;;;;;;13.79;59.94;99349.81;5278335;27;20113;-95
2023/10/24 03:00:03;;;;;;;0.08;0.08;;;;;;;13.82;59.94;99333.94;5278525;27;20411;-96
2023/10/24 03:02:29;;;;;;;0.57;0.50;;;;;;;13.85;59.94;99319.00;5283084;27;20079;-95
2023/10/24 03:04:55;;;;;;;0.32;0.17;;;;;;;13.81;59.94;99320.94;5264406;27;20128;-96
2023/10/24 03:07:24;;;;;;;0.70;0.70;;;;;;;13.76;59.93;99307.28;5284217;27;20087;-96
2023/10/24 03:09:52;;;;;;;0.25;0.25;;;;;;;13.88;59.95;99296.16;5284734;27;20049;-96
2023/10/24 03:12:19;;;;;;;0.60;0.60;;;;;;;13.85;59.94;99306.78;5281162;27;20058;-96
2023/10/24 03:14:45;;;;;;;0.35;0.35;;;;;;;13.88;59.95;99303.16;5288066;26;20772;-96
2023/10/24 03:17:11;;;;;;;0.15;0.05;;;;;;;14.01;59.95;99298.97;5318476;26;20020;-96
2023/10/24 03:19:37;;;;;;;0.20;0.20;;;;;;;14.10;59.96;99277.53;5338332;26;20024;-96
2023/10/24 03:22:03;;;;;;;0.17;0.17;;;;;;;14.08;59.95;99258.47;5295682;26;20079;-96
2023/10/24 03:24:28;;;;;;;0.00;0.00;;;;;;;14.20;59.96;99260.41;5296131;26;20094;-96
2023/10/24 03:26:54;;;;;;;0.13;0.13;;;;;;;14.13;59.95;99270.34;5296316;26;20403;-96
2023/10/24 03:29:20;;;;;;;0.00;0.00;;;;;;;14.21;59.96;99290.91;5295129;26;20085;-96
2023/10/24 03:31:46;;;;;;;0.20;0.20;;;;;;;14.33;59.96;99297.22;5331856;26;20025;-96
2023/10/24 03:34:12;;;;;;;0.68;0.52;;;;;;;14.14;59.95;99292.13;5294467;26;20096;-95
2023/10/24 03:40:00;;;;;;;0.00;0.00;;;;;;;14.32;59.96;99312.09;5371217;26;20047;-96
2023/10/24 04:11:15;;;;;;;2.20;1.15;;;;;;;13.94;59.94;99290.59;5274736;26;20104;-96
2023/10/24 04:13:48;;;;;;;10.35;0.98;;;;;;;13.93;59.94;99291.50;5278440;27;20040;-95
2023/10/24 04:19:09;;;;;;;1.08;1.00;;;;;;;13.91;59.94;99293.38;5287016;27;20072;-94
2023/10/24 04:27:39;;;;;;;0.30;0.30;;;;;;;13.69;59.93;99287.56;5268902;27;20130;-96
2023/10/24 04:33:40;;;;;;;0.25;0.25;;;;;;;13.64;59.92;99302.66;5192447;27;20191;-95
2023/10/24 04:51:41;;;;;;;0.37;0.32;;;;;;;13.55;59.92;99305.75;5325574;26;20066;-96
2023/10/24 05:09:43;;;;;;;0.03;0.03;;;;;;;12.96;59.88;99304.31;5314360;27;20239;-95
2023/10/24 05:12:21;;;;;;;0.45;0.45;;;;;;;12.95;59.89;99297.41;5315367;27;20075;-95
2023/10/24 05:15:17;;;;;;;0.80;0.25;;;;;;;12.89;59.89;99286.34;5294712;27;20025;-95
2023/10/24 05:17:52;;;;;;;0.52;0.52;;;;;;;12.80;59.88;99299.00;5280445;27;20056;-94
2023/10/24 05:20:21;;;;;;;1.05;1.02;;;;;;;12.67;59.88;99311.78;5249994;27;20041;-95
2023/10/24 05:23:06;;;;;;;2.85;0.65;;;;;;;12.53;59.87;99296.75;5297567;27;20025;-95
2023/10/24 05:28:45;;;;;;;0.00;0.00;;;;;;;12.57;59.86;99298.34;5293431;27;20057;-96
2023/10/24 05:31:21;;;;;;;1.17;0.77;;;;;;;12.52;59.87;99289.00;5257247;27;20081;-95
2023/10/24 05:34:21;;;;;;;0.35;0.30;;;;;;;12.50;59.87;99285.63;5257889;27;20028;-95
2023/10/24 05:42:51;;;;;;;0.60;0.52;;;;;;;12.45;59.86;99295.44;5332005;26;20084;-96
2023/10/24 05:48:30;;;;;;;0.30;0.30;;;;;;;12.81;59.88;99291.09;5330757;26;21747;-95
2023/10/24 05:51:25;;;;;;;0.50;0.50;;;;;;;12.69;59.88;99290.81;5338896;26;20055;-96
2023/10/24 05:54:02;;;;;;;0.62;0.52;;;;;;;12.54;59.87;99302.88;5283217;26;21933;-95
2023/10/24 05:56:33;;;;;;;0.22;0.20;;;;;;;12.62;59.87;99299.87;5318308;26;20025;-96
2023/10/24 05:59:37;;;;;;;0.20;0.20;;;;;;;12.77;59.88;99299.97;5302649;27;20055;-96
2023/10/24 06:03:05;;;;;;;0.85;0.62;;;;;;;12.72;59.88;99299.34;5328322;27;20033;-96
2023/10/24 06:06:48;;;;;;;1.98;1.35;;;;;;;12.70;59.87;99295.97;5293360;27;20073;-96
2023/10/24 06:18:40;;;;;;;0.40;0.10;;;;;;;13.25;59.90;99321.19;5317683;27;20060;-96
2023/10/24 06:26:49;;;;;;;0.15;0.15;;;;;;;13.33;59.91;99312.06;5257855;27;20136;-91
2023/10/24 06:29:14;;;;;;;0.75;0.65;;;;;;;13.34;59.90;99311.16;5261823;27;20085;-90
2023/10/24 06:31:40;;;;;;;0.47;0.43;;;;;;;13.46;59.92;99310.50;5279460;27;20076;-91
2023/10/24 06:34:06;;;;;;;1.35;1.25;;;;;;;13.83;59.94;99288.53;5262000;27;20069;-90
2023/10/24 06:36:32;;;;;;;6.18;1.35;;;;;;;14.03;59.95;99299.75;5272034;27;20068;-90
2023/10/24 06:38:57;;;;;;;0.73;0.73;;;;;;;13.90;59.95;99314.37;5284627;27;20061;-91
2023/10/24 06:41:23;;;;;;;2.90;0.80;;;;;;;13.92;59.94;99321.22;5281024;27;20108;-91
2023/10/24 06:43:49;;;;;;;0.37;0.37;;;;;;;13.93;59.94;99306.38;5280885;27;20433;-92
2023/10/24 06:46:14;;;;;;;0.73;0.73;;;;;;;14.17;59.95;99296.38;5281276;27;20079;-91
2023/10/24 06:48:40;;;;;;;4.15;1.17;;;;;;;14.48;59.97;99295.59;5281050;27;20112;-91
2023/10/24 06:51:05;;;;;;;2.65;1.35;;;;;;;14.50;59.97;99297.19;5262533;27;20061;-92
2023/10/24 06:53:31;;;;;;;0.75;0.75;;;;;;;14.53;59.97;99278.69;5280622;27;20110;-91
2023/10/24 06:56:00;;;;;;;6.05;2.08;;;;;;;14.67;59.98;99275.31;5280116;27;23957;-91
2023/10/24 06:58:25;;;;;;;1.10;0.68;;;;;;;14.68;59.99;99282.22;5281395;27;20136;-91
2023/10/24 07:00:51;;;;;;;0.62;0.62;;;;;;;14.72;59.99;99281.97;5280664;27;20053;-91
2023/10/24 07:03:16;;;;;;;0.77;0.77;;;;;;;14.80;59.99;99270.22;5281025;27;20084;-92
2023/10/24 07:05:41;;;;;;;0.70;0.70;;;;;;;14.92;59.99;99265.12;5281386;27;20130;-92
2023/10/24 07:08:07;;;;;;;0.32;0.20;;;;;;;15.02;60.00;99268.87;5282567;27;20100;-91
2023/10/24 07:10:33;;;;;;;28.38;20.83;;;;;;;15.13;60.01;99268.25;5281029;27;22487;-92
2023/10/24 07:12:58;;;;;;;12.20;10.10;;;;;;;15.20;60.01;99266.12;5241046;27;20104;-90
2023/10/24 07:15:25;;;;;;;1.75;1.65;;;;;;;15.28;60.02;99275.22;5270822;27;20065;-91
2023/10/24 07:17:50;;;;;;;3.15;2.00;;;;;;;15.18;60.01;99283.75;5280805;27;20342;-91
2023/10/24 07:20:16;;;;;;;11.38;2.40;;;;;;;15.43;60.02;99270.88;5280992;27;20095;-92
2023/10/24 07:22:41;;;;;;;0.52;0.47;;;;;;;15.78;60.04;99262.69;5280737;27;20459;-91
2023/10/24 07:25:07;;;;;;;0.88;0.82;;;;;;;15.69;60.03;99269.34;5269710;27;20098;-91
2023/10/24 07:27:33;;;;;;;1.85;1.10;;;;;;;15.87;60.05;99260.34;5296325;27;20388;-91
2023/10/24 07:29:58;;;;;;;0.60;0.60;;;;;;;16.15;60.06;99256.00;5280527;27;20065;-91
2023/10/24 07:32:23;;;;;;;0.82;0.68;;;;;;;15.99;60.05;99258.72;5298897;27;20076;-92
2023/10/24 07:34:51;;;;;;;1.77;1.27;;;;;;;16.03;60.05;99262.84;5298905;27;20328;-92
2023/10/24 07:37:16;;;;;;;1.15;1.05;;;;;;;16.25;60.07;99259.72;5299405;27;20088;-91
2023/10/24 07:39:42;;;;;;;0.10;0.10;;;;;;;16.19;60.06;99254.87;5299019;27;20110;-92
2023/10/24 07:42:08;;;;;;;1.75;0.75;;;;;;;16.27;60.07;99245.56;5286031;27;20175;-91
2023/10/24 07:44:34;;;;;;;0.22;0.22;;;;;;;16.38;60.07;99246.69;5297532;27;20026;-90
2023/10/24 07:46:59;;;;;;;2.15;0.85;;;;;;;16.28;60.06;99242.00;5305324;27;20449;-92
2023/10/24 07:49:25;;;;;;;0.77;0.57;;;;;;;16.36;60.07;99240.69;5279689;27;26290;-91
2023/10/24 07:51:50;;;;;;;0.85;0.43;;;;;;;16.42;60.07;99242.91;5298773;27;20116;-93
2023/10/24 07:54:15;;;;;;;0.25;0.15;;;;;;;16.51;60.08;99243.16;5298980;27;20083;-92
2023/10/24 07:56:41;;;;;;;0.17;0.17;;;;;;;16.53;60.08;99243.88;5302084;27;20080;-92
2023/10/24 07:59:10;;;;;;;1.02;0.88;;;;;;;16.68;60.08;99234.22;5298790;27;20110;-91
2023/10/24 08:01:35;;;;;;;0.85;0.85;;;;;;;17.02;60.11;99226.72;5280895;27;20705;-91
2023/10/24 08:04:01;;;;;;;0.22;0.17;;;;;;;16.98;60.10;99227.88;5280856;27;20069;-91
2023/10/24 08:06:27;;;;;;;0.45;0.45;;;;;;;16.99;60.10;99232.19;5280894;27;20037;-91
2023/10/24 08:08:52;;;;;;;0.60;0.43;;;;;;;17.00;60.10;99229.47;5298468;27;20270;-92
2023/10/24 08:11:18;;;;;;;0.30;0.30;;;;;;;17.06;60.10;99244.84;5280281;27;20527;-92
2023/10/24 08:13:43;;;;;;;0.32;0.32;;;;;;;17.13;60.11;99237.38;5298873;27;20091;-92
2023/10/24 08:16:09;;;;;;;0.55;0.55;;;;;;;17.33;60.13;99244.78;5307651;27;20085;-90
2023/10/24 08:18:34;;;;;;;1.40;0.95;;;;;;;17.31;60.11;99230.06;5298526;27;20064;-91
2023/10/24 08:21:00;;;;;;;1.45;1.23;;;;;;;17.32;60.12;99237.84;5298939;27;20049;-91
2023/10/24 08:23:26;;;;;;;1.87;1.00;;;;;;;17.58;60.13;99232.59;5298254;27;20061;-91
2023/10/24 08:25:51;;;;;;;36.97;1.30;;;;;;;17.42;60.13;99244.16;5284244;27;20134;-92
2023/10/24 08:28:16;;;;;;;0.25;0.25;;;;;;;17.43;60.13;99245.81;5302437;27;20115;-92
2023/10/24 08:30:42;;;;;;;0.70;0.68;;;;;;;17.48;60.14;99241.09;5284712;27;20052;-92
2023/10/24 08:33:07;;;;;;;1.25;0.55;;;;;;;17.55;60.13;99238.06;5303387;27;20080;-91
2023/10/24 08:35:33;;;;;;;0.70;0.70;;;;;;;17.70;60.13;99234.38;5285135;27;20092;-92
2023/10/24 08:37:58;;;;;;;3.40;1.10;;;;;;;17.62;60.13;99226.16;5284847;27;20078;-92
2023/10/24 08:40:23;;;;;;;1.12;0.82;;;;;;;17.79;60.15;99224.06;5284659;27;20063;-90
2023/10/24 08:42:49;;;;;;;0.43;0.43;;;;;;;17.96;60.16;99224.66;5284826;27;20107;-91
2023/10/24 08:45:17;;;;;;;0.20;0.20;;;;;;;18.05;60.16;99229.28;5286307;27;20068;-92
2023/10/24 08:47:43;;;;;;;1.15;0.85;;;;;;;18.14;60.16;99231.25;5285273;27;20027;-92
2023/10/24 08:50:09;;;;;;;7.03;1.40;;;;;;;18.23;60.17;99220.09;5303302;26;20128;-91
2023/10/24 08:52:34;;;;;;;0.30;0.20;;;;;;;18.32;60.18;99221.19;5285060;27;20072;-92
2023/10/24 08:55:00;;;;;;;1.10;0.75;;;;;;;18.38;60.17;99215.47;5284882;27;20445;-92
2023/10/24 08:57:31;;;;;;;8.77;2.35;;;;;;;18.51;60.18;99213.66;5285813;27;20192;-92
2023/10/24 08:59:57;;;;;;;0.73;0.73;;;;;;;18.54;60.18;99213.41;5285828;27;20068;-91
2023/10/24 09:02:22;;;;;;;1.12;0.93;;;;;;;18.63;60.20;99206.66;5295205;27;20052;-91
2023/10/24 09:04:50;;;;;;;0.45;0.45;;;;;;;18.78;60.21;99204.69;5287704;27;20345;-93
2023/10/24 09:07:15;;;;;;;0.55;0.20;;;;;;;18.82;60.20;99203.50;5285374;27;20057;-92
2023/10/24 09:09:41;;;;;;;0.10;0.10;;;;;;;18.79;60.20;99201.94;5284532;27;20156;-93
2023/10/24 09:12:08;;;;;;;1.25;1.00;;;;;;;18.81;60.20;99201.81;5284182;27;20159;-91
2023/10/24 09:14:33;;;;;;;0.60;0.40;;;;;;;18.82;60.20;99187.69;5303925;26;20077;-92
2023/10/24 09:17:04;;;;;;;1.20;1.10;;;;;;;18.90;60.21;99169.47;5284839;27;20373;-92
2023/10/24 09:19:30;;;;;;;0.60;0.60;;;;;;;19.06;60.21;99162.09;5285557;27;20246;-92
2023/10/24 09:21:59;;;;;;;0.47;0.47;;;;;;;19.11;60.22;99157.31;5284660;27;20256;-92
2023/10/24 09:24:25;;;;;;;1.60;1.50;;;;;;;19.14;60.22;99151.78;5286375;27;20094;-91
2023/10/24 09:26:54;;;;;;;2.05;1.45;;;;;;;19.27;60.22;99160.44;5293301;27;20399;-91
2023/10/24 09:29:20;;;;;;;1.60;1.50;;;;;;;19.50;60.24;99165.75;5303021;27;20131;-91
2023/10/24 09:31:46;;;;;;;1.17;0.90;;;;;;;19.58;60.24;99166.00;5284724;27;20326;-91
2023/10/24 09:34:12;;;;;;;0.43;0.43;;;;;;;19.62;60.25;99157.72;5303117;27;20083;-91
2023/10/24 09:36:37;;;;;;;0.22;0.22;;;;;;;19.92;60.25;99161.56;5284418;27;20077;-90
2023/10/24 09:39:03;;;;;;;2.17;1.10;;;;;;;20.03;60.27;99174.75;5321411;27;20057;-92
2023/10/24 09:41:30;;;;;;;0.60;0.60;;;;;;;20.27;60.28;99171.09;5283999;27;20068;-93
2023/10/24 09:43:55;;;;;;;4.32;1.17;;;;;;;20.29;60.28;99170.00;5303932;27;20037;-92
2023/10/24 09:46:21;;;;;;;3.00;1.05;;;;;;;20.33;60.28;99176.69;5284649;27;20390;-92
2023/10/24 09:48:46;;;;;;;2.03;0.95;;;;;;;20.60;60.29;99172.81;5284171;27;20518;-92
2023/10/24 09:51:12;;;;;;;1.17;0.88;;;;;;;20.59;60.29;99179.91;5284313;27;20083;-92
2023/10/24 09:53:37;;;;;;;14.93;2.05;;;;;;;20.68;60.30;99186.25;5284358;27;20061;-92
2023/10/24 09:56:03;;;;;;;0.82;0.68;;;;;;;20.53;60.29;99167.19;5284566;27;20087;-91
2023/10/24 09:58:28;;;;;;;0.50;0.30;;;;;;;20.76;60.31;99152.06;5284432;27;20079;-93
2023/10/24 10:00:54;;;;;;;0.75;0.75;;;;;;;21.10;60.32;99142.97;5284105;27;20082;-93
2023/10/24 10:03:19;;;;;;;0.20;0.20;;;;;;;21.20;60.33;99150.13;5284462;27;20117;-92
2023/10/24 10:05:44;;;;;;;0.10;0.10;;;;;;;21.33;60.34;99150.78;5286058;27;20061;-91
2023/10/24 10:08:10;;;;;;;0.20;0.20;;;;;;;21.46;60.34;99132.84;5284302;27;20509;-92
2023/10/24 10:10:36;;;;;;;2.03;0.85;;;;;;;21.54;60.34;99130.41;5284480;27;20117;-92
2023/10/24 10:13:03;;;;;;;0.20;0.20;;;;;;;21.78;60.35;99116.81;5303185;27;20079;-92
2023/10/24 10:15:48;;;;;;;0.50;0.35;;;;;;;21.73;60.35;99101.31;5303421;26;20890;-92
2023/10/24 10:18:29;;;;;;;0.00;0.00;;;;;;;21.88;60.36;99087.69;5321602;27;20075;-92
2023/10/24 10:21:16;;;;;;;0.90;0.68;;;;;;;21.94;60.36;99081.84;5303394;27;20064;-91
2023/10/24 10:24:09;;;;;;;0.10;0.10;;;;;;;22.01;60.36;99082.97;5305901;27;20064;-91
2023/10/24 10:27:04;;;;;;;0.00;0.00;;;;;;;22.13;60.37;99083.69;5300086;27;20039;-92
2023/10/24 10:29:52;;;;;;;0.00;0.00;;;;;;;22.14;60.38;99085.38;5284986;27;20087;-91
2023/10/24 10:32:38;;;;;;;0.10;0.10;;;;;;;22.26;60.38;99086.94;5303800;27;20076;-91
2023/10/24 10:35:04;;;;;;;0.15;0.15;;;;;;;22.34;60.39;99079.94;5309183;27;20065;-89
2023/10/24 10:37:34;;;;;;;0.25;0.20;;;;;;;22.24;60.38;99083.56;5301327;27;20084;-92
2023/10/24 10:40:17;;;;;;;0.45;0.40;;;;;;;22.39;60.39;99078.69;5298858;27;20073;-92
2023/10/24 10:42:52;;;;;;;0.00;0.00;;;;;;;22.48;60.39;99073.38;5299032;27;20366;-94
2023/10/24 10:45:30;;;;;;;0.90;0.55;;;;;;;22.48;60.39;99065.44;5299235;27;20065;-92
2023/10/24 10:48:02;;;;;;;0.05;0.05;;;;;;;22.40;60.38;99069.75;5299127;27;20021;-91
2023/10/24 10:50:32;;;;;;;0.20;0.20;;;;;;;22.39;60.39;99068.91;5280634;27;20118;-92
2023/10/24 10:53:03;;;;;;;0.47;0.47;;;;;;;22.57;60.39;99075.19;5280399;27;20069;-92
2023/10/24 10:55:33;;;;;;;0.40;0.40;;;;;;;22.56;60.40;99072.69;5299000;27;20437;-91
2023/10/24 10:58:14;;;;;;;0.17;0.17;;;;;;;22.73;60.40;99073.78;5299031;27;20086;-92
2023/10/24 11:00:59;;;;;;;2.58;0.93;;;;;;;22.68;60.41;99079.47;5301613;27;20654;-92
2023/10/24 11:03:27;;;;;;;4.62;2.97;;;;;;;22.73;60.42;99079.09;5281854;27;20645;-92
2023/10/24 11:05:53;;;;;;;3.42;2.67;;;;;;;22.81;60.42;99076.53;5298757;27;20084;-91
2023/10/24 11:08:22;;;;;;;0.55;0.55;;;;;;;22.70;60.40;99079.34;5280521;27;20057;-91
2023/10/24 11:10:54;;;;;;;0.25;0.25;;;;;;;22.87;60.41;99074.19;5299354;27;20057;-91
2023/10/24 11:13:36;;;;;;;0.28;0.28;;;;;;;22.83;60.42;99079.91;5298666;27;20123;-91
2023/10/24 11:16:02;;;;;;;0.43;0.28;;;;;;;22.87;60.41;99087.44;5299002;27;20064;-91
2023/10/24 11:18:28;;;;;;;0.28;0.28;;;;;;;22.84;60.41;99085.09;5295575;27;111452;-91
2023/10/24 11:20:54;;;;;;;2.08;0.40;;;;;;;22.92;60.42;99085.19;5280871;27;20053;-92
2023/10/24 11:23:19;;;;;;;0.00;0.00;;;;;;;22.90;60.42;99084.50;5280290;27;20128;-92
2023/10/24 11:25:44;;;;;;;0.10;0.10;;;;;;;;;;5303442;26;20065;-91
2023/10/24 11:28:10;;;;;;;1.10;0.32;;;;;;;23.03;60.42;99075.41;5305848;26;20133;-92
2023/10/24 11:30:35;;;;;;;0.50;0.50;;;;;;;22.99;60.43;99079.34;5305696;26;20067;-92
2023/10/24 11:33:01;;;;;;;0.57;0.57;;;;;;;22.86;60.42;99074.31;5305734;26;20099;-92
2023/10/24 11:35:26;;;;;;;16.92;9.93;;;;;;;22.98;60.43;99065.22;5324371;26;20068;-92
2023/10/24 11:37:52;;;;;;;2.28;1.92;;;;;;;22.96;60.41;99064.53;5305897;26;20052;-91
2023/10/24 11:40:17;;;;;;;1.65;1.08;;;;;;;22.94;60.41;99072.63;5305970;26;20066;-92
2023/10/24 11:42:43;;;;;;;0.22;0.22;;;;;;;22.79;60.41;99068.72;5307680;26;20077;-92
2023/10/24 11:45:09;;;;;;;1.37;0.98;;;;;;;22.82;60.41;99072.94;5306449;26;20121;-91
2023/10/24 11:47:34;;;;;;;1.15;0.20;;;;;;;22.87;60.41;99079.47;5287466;26;20049;-91
2023/10/24 11:49:59;;;;;;;0.35;0.35;;;;;;;22.88;60.42;99078.50;5305348;26;20060;-91
2023/10/24 11:52:25;;;;;;;0.40;0.40;;;;;;;23.00;60.43;99075.69;5305810;26;20057;-91
2023/10/24 11:54:54;;;;;;;0.17;0.17;;;;;;;22.82;60.42;99084.38;5323953;26;20068;-92
2023/10/24 11:57:20;;;;;;;0.20;0.20;;;;;;;22.71;60.41;99068.59;5288478;26;20074;-91
2023/10/24 11:59:46;;;;;;;0.45;0.28;;;;;;;22.75;60.42;99071.81;5305742;26;20549;-92
2023/10/24 12:02:11;;;;;;;0.13;0.10;;;;;;;22.80;60.42;99067.75;5306076;26;20152;-92
2023/10/24 12:04:37;;;;;;;0.25;0.25;;;;;;;22.84;60.41;99055.87;5307050;26;20092;-92
2023/10/24 12:07:20;;;;;;;0.00;0.00;;;;;;;22.64;60.42;99059.53;5307817;26;20059;-92
2023/10/24 12:09:46;;;;;;;2.12;0.90;;;;;;;22.59;60.41;99062.63;5290130;26;20058;-92
2023/10/24 12:12:11;;;;;;;4.68;1.45;;;;;;;22.53;60.40;99063.19;5308650;26;20416;-91
2023/10/24 12:14:37;;;;;;;0.37;0.37;;;;;;;22.72;60.42;99046.41;5309236;26;20096;-90
2023/10/24 12:17:03;;;;;;;0.52;0.52;;;;;;;22.53;60.40;99047.28;5311440;26;20057;-92
2023/10/24 12:19:28;;;;;;;0.65;0.65;;;;;;;22.48;60.39;99027.47;5306709;26;20052;-91
2023/10/24 12:21:54;;;;;;;0.35;0.28;;;;;;;22.48;60.40;99019.50;5306443;26;20099;-91
2023/10/24 12:24:19;;;;;;;0.10;0.10;;;;;;;22.49;60.40;99024.69;5307100;26;20123;-91
2023/10/24 12:26:45;;;;;;;8.57;1.02;;;;;;;22.30;60.39;99030.00;5306495;26;20087;-91
2023/10/24 12:29:10;;;;;;;0.05;0.05;;;;;;;22.14;60.38;99029.72;5306787;26;20087;-91
2023/10/24 12:31:39;;;;;;;0.00;0.00;;;;;;;22.13;60.38;99025.37;5306630;26;20068;-91
2023/10/24 12:34:04;;;;;;;0.15;0.15;;;;;;;22.19;60.39;99035.44;5325245;26;20131;-91
2023/10/24 12:36:30;;;;;;;0.30;0.30;;;;;;;22.19;60.39;99044.22;5307226;26;20079;-91
2023/10/24 12:38:55;;;;;;;0.55;0.28;;;;;;;22.29;60.39;99033.63;5306540;26;20070;-91
2023/10/24 12:41:20;;;;;;;0.28;0.28;;;;;;;22.25;60.38;99033.06;5305909;26;26080;-93
2023/10/24 12:43:46;;;;;;;0.15;0.15;;;;;;;22.24;60.39;99034.06;5306615;26;20374;-92
2023/10/24 12:46:13;;;;;;;0.30;0.30;;;;;;;22.22;60.39;99045.75;5306426;26;20095;-91
2023/10/24 12:48:39;;;;;;;2.33;0.88;;;;;;;22.21;60.39;99038.78;5325210;26;20098;-92
2023/10/24 12:51:04;;;;;;;0.00;0.00;;;;;;;22.15;60.38;99042.81;5306812;26;20108;-92
2023/10/24 12:53:29;;;;;;;0.98;0.82;;;;;;;22.22;60.39;99040.44;5306589;26;20084;-92
2023/10/24 12:55:55;;;;;;;1.98;1.75;;;;;;;22.15;60.38;99034.03;5306610;26;20076;-93
2023/10/24 12:58:20;;;;;;;3.12;1.05;;;;;;;22.12;60.38;99036.97;5326490;26;20083;-92
2023/10/24 13:00:46;;;;;;;1.65;0.62;;;;;;;22.17;60.39;99024.13;5306597;26;20123;-92
2023/10/24 13:03:11;;;;;;;4.82;1.40;;;;;;;21.97;60.38;99020.59;5306216;26;20053;-92
2023/10/24 13:05:37;;;;;;;0.00;0.00;;;;;;;22.09;60.38;99014.25;5306752;26;20391;-93
2023/10/24 13:08:03;;;;;;;0.32;0.32;;;;;;;22.03;60.38;99020.06;5306833;26;20144;-92
2023/10/24 13:10:29;;;;;;;6.43;0.80;;;;;;;21.96;60.38;99027.72;5306696;26;20065;-93
2023/10/24 13:12:55;;;;;;;2.60;1.33;;;;;;;21.91;60.37;99029.12;5306483;26;20086;-92
2023/10/24 13:15:20;;;;;;;1.83;1.73;;;;;;;21.90;60.37;99038.03;5305986;26;20072;-91
2023/10/24 13:17:45;;;;;;;2.03;1.08;;;;;;;21.94;60.36;99039.44;5306923;26;20060;-91
2023/10/24 13:20:11;;;;;;;3.47;1.65;;;;;;;21.75;60.36;99030.47;5306332;26;20122;-91
2023/10/24 13:22:36;;;;;;;0.80;0.80;;;;;;;21.78;60.37;99033.84;5306536;26;20078;-91
2023/10/24 13:25:02;;;;;;;1.00;0.75;;;;;;;21.83;60.37;99037.75;5306525;26;20437;-91
2023/10/24 13:27:27;;;;;;;1.27;1.10;;;;;;;21.79;60.36;99038.19;5306291;26;20425;-91
2023/10/24 13:29:53;;;;;;;0.15;0.15;;;;;;;21.60;60.35;99033.69;5306229;26;20092;-92
2023/10/24 13:32:18;;;;;;;0.22;0.22;;;;;;;21.76;60.36;99031.31;5305712;26;22032;-92
2023/10/24 13:34:44;;;;;;;0.20;0.10;;;;;;;21.61;60.35;99027.41;5306228;26;21597;-91
2023/10/24 13:37:09;;;;;;;0.05;0.05;;;;;;;21.53;60.35;99035.16;5306803;26;20661;-91
2023/10/24 13:39:34;;;;;;;0.43;0.40;;;;;;;21.36;60.34;99029.56;5306489;26;20149;-91
2023/10/24 13:42:00;;;;;;;3.50;0.80;;;;;;;21.23;60.33;99022.81;5306903;26;20401;-91
2023/10/24 13:44:26;;;;;;;0.10;0.10;;;;;;;21.52;60.35;99018.44;5306838;26;20111;-91
2023/10/24 13:46:52;;;;;;;1.40;0.60;;;;;;;21.40;60.34;99011.59;5307025;26;20557;-90
2023/10/24 13:49:17;;;;;;;0.43;0.35;;;;;;;21.22;60.33;99007.88;5288924;26;20068;-91
2023/10/24 13:51:43;;;;;;;0.28;0.28;;;;;;;21.20;60.34;98999.25;5306754;26;20078;-90
2023/10/24 13:54:08;;;;;;;0.35;0.35;;;;;;;20.97;60.32;98998.59;5306793;26;20082;-91
2023/10/24 13:56:34;;;;;;;0.55;0.55;;;;;;;21.02;60.33;98991.94;5306547;26;20429;-91
2023/10/24 13:58:59;;;;;;;0.10;0.10;;;;;;;20.91;60.32;98997.34;5306485;26;20341;-91
2023/10/24 14:01:25;;;;;;;4.18;0.75;;;;;;;20.94;60.33;98975.06;5306510;26;20122;-91